createdAt,value
2023-02-27T05:39:14.841Z,102826.16
2023-02-27T05:41:46.777Z,102827.31
2023-02-27T05:44:17.132Z,102831.69
2023-02-27T05:46:47.602Z,102846.94
2023-02-27T05:49:18.112Z,102846.91
2023-02-27T05:51:50.386Z,102830.47
2023-02-27T05:54:24.546Z,102837.75
2023-02-27T05:56:54.094Z,102831.94
2023-02-27T05:59:28.100Z,102841.44
2023-02-27T06:01:54.892Z,102840.03
2023-02-27T06:04:21.530Z,102837.59
2023-02-27T06:06:48.450Z,102842.81
2023-02-27T06:09:15.122Z,102837.28
2023-02-27T06:11:42.954Z,102829.38
2023-02-27T06:14:09.461Z,102840.78
2023-02-27T06:16:35.950Z,102847.94
2023-02-27T06:19:04.868Z,102839.28
2023-02-27T06:21:31.737Z,102842.66
2023-02-27T06:23:58.363Z,102837.41
2023-02-27T06:26:24.973Z,102839.28
2023-02-27T06:28:52.928Z,102847.09
2023-02-27T06:31:19.528Z,102845.38
2023-02-27T06:33:46.014Z,102845.22
2023-02-27T06:36:12.567Z,102846.72
2023-02-27T06:38:39.069Z,102850.31
2023-02-27T06:41:05.760Z,102843.63
2023-02-27T06:43:32.235Z,102839.47
2023-02-27T06:46:00.175Z,102857.94
2023-02-27T06:48:26.756Z,102857.56
2023-02-27T06:50:53.810Z,102870.16
2023-02-27T06:53:20.773Z,102864.34
2023-02-27T06:55:47.291Z,102871.47
2023-02-27T06:58:13.821Z,102866.66
2023-02-27T07:00:40.310Z,102875.72
2023-02-27T07:03:08.147Z,102867.53
2023-02-27T07:05:34.710Z,102875.31
2023-02-27T07:08:01.964Z,102870.75
2023-02-27T07:10:28.474Z,102869.69
2023-02-27T07:12:55.078Z,102877.88
2023-02-27T07:15:22.193Z,102869.13
2023-02-27T07:17:48.686Z,102869.97
2023-02-27T07:20:16.717Z,102873.56
2023-02-27T07:22:43.223Z,102870.66
2023-02-27T07:25:10.076Z,102877.59
2023-02-27T07:27:36.637Z,102885.78
2023-02-27T07:30:03.776Z,102879.47
2023-02-27T07:32:30.293Z,102883.94
2023-02-27T07:34:56.768Z,102889.38
2023-02-27T07:37:26.968Z,102884.78
2023-02-27T07:39:54.464Z,102899.91
2023-02-27T07:42:20.961Z,102897.16
2023-02-27T07:44:48.099Z,102902.47
2023-02-27T07:47:14.617Z,102909.59
2023-02-27T07:49:41.093Z,102904.81
2023-02-27T07:52:07.596Z,102911.75
2023-02-27T07:54:35.849Z,102914.50
2023-02-27T07:57:02.389Z,102906.13
2023-02-27T07:59:28.867Z,102922.31
2023-02-27T08:01:55.394Z,102915.63
2023-02-27T08:04:22.068Z,102911.03
2023-02-27T08:06:48.658Z,102906.88
2023-02-27T08:09:15.311Z,102913.31
2023-02-27T08:11:43.216Z,102913.59
2023-02-27T08:14:09.731Z,102903.81
2023-02-27T08:16:36.330Z,102901.09
2023-02-27T08:19:02.918Z,102913.53
2023-02-27T08:21:30.451Z,102920.28
2023-02-27T08:23:57.264Z,102916.25
2023-02-27T08:26:24.026Z,102916.41
2023-02-27T08:28:51.954Z,102920.47
2023-02-27T08:31:18.485Z,102923.28
2023-02-27T08:33:45.005Z,102930.06
2023-02-27T08:36:11.523Z,102928.00
2023-02-27T08:38:38.069Z,102931.00
2023-02-27T08:41:04.842Z,102926.47
2023-02-27T08:43:31.432Z,102926.75
2023-02-27T08:45:59.377Z,102929.09
2023-02-27T08:48:27.557Z,102924.31
2023-02-27T08:50:55.642Z,102931.06
2023-02-27T08:53:24.321Z,102933.50
2023-02-27T08:55:51.709Z,102925.69
2023-02-27T08:58:18.775Z,102931.16
2023-02-27T09:00:45.967Z,102928.38
2023-02-27T09:03:13.877Z,102929.59
2023-02-27T09:05:40.849Z,102926.19
2023-02-27T09:08:07.456Z,102923.28
2023-02-27T09:10:34.400Z,102931.28
2023-02-27T09:13:01.096Z,102929.84
2023-02-27T09:15:27.676Z,102932.03
2023-02-27T09:17:54.156Z,102922.94
2023-02-27T09:20:22.219Z,102927.66
2023-02-27T09:22:48.731Z,102931.91
2023-02-27T09:25:15.461Z,102939.50
2023-02-27T09:27:41.934Z,102928.34
2023-02-27T09:30:09.964Z,102933.19
2023-02-27T09:32:36.482Z,102930.66
2023-02-27T09:35:03.175Z,102928.78
2023-02-27T09:37:31.032Z,102916.56
2023-02-27T09:39:57.506Z,102917.69
2023-02-27T09:42:28.239Z,102929.09
2023-02-27T09:44:57.544Z,102916.03
2023-02-27T09:47:27.507Z,102920.28
2023-02-27T09:49:59.653Z,102922.81
2023-02-27T09:52:27.436Z,102924.53
2023-02-27T09:54:55.465Z,102914.44
2023-02-27T09:57:32.153Z,102921.41
2023-02-27T10:00:04.221Z,102926.88
2023-02-27T10:02:45.775Z,102922.25
2023-02-27T10:05:23.104Z,102926.66
2023-02-27T10:07:56.835Z,102919.97
2023-02-27T10:10:32.268Z,102916.19
2023-02-27T10:13:24.127Z,102918.91
2023-02-27T10:15:53.382Z,102916.19
2023-02-27T10:18:28.978Z,102918.72
2023-02-27T10:21:00.121Z,102917.69
2023-02-27T10:23:35.674Z,102922.94
2023-02-27T10:26:04.799Z,102926.72
2023-02-27T10:28:32.826Z,102926.72
2023-02-27T10:31:01.289Z,102941.84
2023-02-27T10:33:33.733Z,102947.72
2023-02-27T10:36:02.183Z,102943.00
2023-02-27T10:38:34.032Z,102949.75
2023-02-27T10:41:03.780Z,102947.19
2023-02-27T10:43:30.308Z,102953.88
2023-02-27T10:46:00.594Z,102954.31
2023-02-27T10:48:27.218Z,102950.91
2023-02-27T10:51:22.443Z,102954.69
2023-02-27T10:53:49.504Z,102962.06
2023-02-27T10:56:23.476Z,102953.84
2023-02-27T10:59:02.491Z,102954.88
2023-02-27T11:01:42.373Z,102947.31
2023-02-27T11:04:09.007Z,102949.22
2023-02-27T11:06:36.886Z,102948.75
2023-02-27T11:09:20.148Z,102955.91
2023-02-27T11:11:46.716Z,102949.59
2023-02-27T11:14:25.827Z,102951.66
2023-02-27T11:16:54.399Z,102951.22
2023-02-27T11:19:26.003Z,102946.16
2023-02-27T11:22:06.353Z,102946.53
2023-02-27T11:24:33.033Z,102943.13
2023-02-27T11:27:01.566Z,102937.22
2023-02-27T11:29:28.178Z,102936.38
2023-02-27T11:31:57.353Z,102943.06
2023-02-27T11:34:27.485Z,102947.06
2023-02-27T11:36:57.481Z,102947.63
2023-02-27T11:39:30.251Z,102952.22
2023-02-27T11:41:59.159Z,102957.69
2023-02-27T11:44:34.100Z,102956.69
2023-02-27T11:47:20.273Z,102959.00
2023-02-27T11:50:03.268Z,102948.06
2023-02-27T11:52:37.853Z,102946.00
2023-02-27T11:55:13.519Z,102949.41
2023-02-27T11:57:42.607Z,102954.00
2023-02-27T12:00:17.701Z,102949.41
2023-02-27T12:02:51.125Z,102945.63
2023-02-27T12:05:20.557Z,102936.19
2023-02-27T12:07:54.328Z,102936.81
2023-02-27T12:10:26.327Z,102937.66
2023-02-27T12:12:57.700Z,102940.22
2023-02-27T12:15:30.236Z,102922.09
2023-02-27T12:18:09.811Z,102928.41
2023-02-27T12:20:41.342Z,102920.63
2023-02-27T12:23:16.745Z,102916.59
2023-02-27T12:25:50.267Z,102928.94
2023-02-27T12:28:30.138Z,102913.97
2023-02-27T12:31:08.527Z,102917.75
2023-02-27T12:33:41.122Z,102923.41
2023-02-27T12:36:11.816Z,102922.75
2023-02-27T12:38:38.771Z,102917.66
2023-02-27T12:41:30.722Z,102915.97
2023-02-27T12:44:23.766Z,102910.72
2023-02-27T12:46:58.678Z,102912.75
2023-02-27T12:49:35.860Z,102912.75
2023-02-27T12:52:17.041Z,102908.34
2023-02-27T12:54:55.557Z,102905.78
2023-02-27T12:57:36.964Z,102903.25
2023-02-27T13:00:14.651Z,102907.03
2023-02-27T13:02:50.128Z,102900.72
2023-02-27T13:05:28.093Z,102899.28
2023-02-27T13:08:02.720Z,102898.53
2023-02-27T13:10:34.249Z,102893.34
2023-02-27T13:13:12.485Z,102895.88
2023-02-27T13:15:44.847Z,102887.50
2023-02-27T13:18:27.883Z,102894.06
2023-02-27T13:21:00.144Z,102893.00
2023-02-27T13:23:33.326Z,102895.75
2023-02-27T13:26:03.208Z,102897.63
2023-02-27T13:28:31.707Z,102889.25
2023-02-27T13:31:06.345Z,102892.00
2023-02-27T13:33:37.321Z,102890.94
2023-02-27T13:36:12.499Z,102893.47
2023-02-27T13:38:43.748Z,102887.16
2023-02-27T13:41:37.779Z,102899.78
2023-02-27T13:44:47.254Z,102906.13
2023-02-27T13:47:40.689Z,102904.41
2023-02-27T13:50:44.519Z,102901.88
2023-02-27T13:53:18.157Z,102910.72
2023-02-27T13:55:45.162Z,102908.84
2023-02-27T13:58:17.702Z,102913.44
2023-02-27T14:00:54.837Z,102914.13
2023-02-27T14:03:25.199Z,102911.59
2023-02-27T14:05:53.798Z,102916.19
2023-02-27T14:08:23.056Z,102908.56
2023-02-27T14:10:56.857Z,102916.31
2023-02-27T14:13:58.116Z,102912.28
2023-02-27T14:16:56.892Z,102913.50
2023-02-27T14:19:52.759Z,102908.03
